Time;durP1;ratioP1;P1;durP2;ratioP2;P2;SDS_P1;SDS_P2;PMS_P1;PMS_P2;Temp;Humidity;BMP_temperature;BMP_pressure;BME280_temperature;BME280_humidity;BME280_pressure;Samples;Min_cycle;Max_cycle;Signal;HPM_P1;HPM_P2
2022/09/20 00:01:19;;;;;;;0.80;0.80;;;;;;;14.92;62.99;99337.78;5052142;28;20196;-64
2022/09/20 00:03:48;;;;;;;0.70;0.70;;;;;;;15.21;62.74;99379.75;5068704;28;20188;-65
2022/09/20 00:06:16;;;;;;;0.77;0.77;;;;;;;15.14;62.55;99379.84;5072652;28;20656;-65
2022/09/20 00:08:43;;;;;;;1.03;0.90;;;;;;;15.09;62.99;99379.72;5072506;28;20223;-65
2022/09/20 00:11:14;;;;;;;3.23;0.90;;;;;;;15.12;62.59;99373.09;5072749;28;20269;-66
2022/09/20 00:13:42;;;;;;;1.30;1.10;;;;;;;15.22;62.37;99376.00;5072492;28;20678;-66
2022/09/20 00:16:13;;;;;;;1.40;0.90;;;;;;;15.23;62.44;99378.47;5072412;28;20713;-66
2022/09/20 00:18:41;;;;;;;1.30;0.83;;;;;;;15.28;62.01;99372.44;5073094;28;20187;-66
2022/09/20 00:21:15;;;;;;;0.90;0.90;;;;;;;15.27;62.19;99363.59;5057536;28;20623;-65
2022/09/20 00:23:42;;;;;;;0.73;0.73;;;;;;;15.22;61.52;99360.78;5052878;28;20200;-65
2022/09/20 00:26:09;;;;;;;1.07;1.00;;;;;;;15.17;62.24;99367.88;5052249;28;20242;-65
2022/09/20 00:28:36;;;;;;;0.83;0.83;;;;;;;15.15;61.70;99365.41;5052493;28;20199;-65
2022/09/20 00:31:03;;;;;;;2.30;0.80;;;;;;;15.20;62.10;99365.53;5052815;28;20205;-65
2022/09/20 00:36:12;;;;;;;1.47;0.80;;;;;;;15.16;61.90;99371.59;5052211;28;20180;-65
2022/09/20 00:38:38;;;;;;;1.00;0.90;;;;;;;15.18;62.10;99373.00;5052122;28;20635;-65
2022/09/20 00:41:06;;;;;;;0.60;0.60;;;;;;;15.22;61.74;99382.19;5052982;28;20246;-65
2022/09/20 00:43:38;;;;;;;0.70;0.70;;;;;;;15.21;61.75;99375.22;5052345;28;20270;-65
2022/09/20 00:46:13;;;;;;;3.23;0.70;;;;;;;15.24;61.78;99379.28;5052029;28;20223;-66
2022/09/20 00:48:40;;;;;;;3.43;1.00;;;;;;;15.24;61.48;99369.38;5052042;28;20736;-66
2022/09/20 00:51:11;;;;;;;0.70;0.70;;;;;;;15.20;61.48;99373.56;5051944;28;20197;-65
2022/09/20 00:53:42;;;;;;;0.70;0.70;;;;;;;15.15;61.55;99372.66;5051975;28;20246;-66
2022/09/20 00:56:12;;;;;;;0.80;0.80;;;;;;;15.02;62.46;99378.97;5051959;28;20192;-66
2022/09/20 00:58:45;;;;;;;0.50;0.50;;;;;;;15.06;62.33;99380.16;5051844;28;20185;-65
2022/09/20 01:01:13;;;;;;;1.27;0.80;;;;;;;15.09;62.99;99378.88;5051942;28;20185;-66
2022/09/20 01:03:42;;;;;;;3.17;0.80;;;;;;;14.97;63.10;99378.84;5051824;28;20223;-66
2022/09/20 01:06:12;;;;;;;1.73;0.90;;;;;;;14.95;63.64;99375.56;5051838;28;20196;-66
2022/09/20 01:08:44;;;;;;;1.83;0.73;;;;;;;14.91;63.87;99371.72;5052348;28;20290;-66
2022/09/20 01:11:11;;;;;;;1.37;0.57;;;;;;;14.96;64.09;99366.50;5052510;28;20672;-66
2022/09/20 01:13:38;;;;;;;1.43;0.70;;;;;;;14.95;64.27;99374.78;5056064;28;20610;-66
2022/09/20 01:16:06;;;;;;;0.50;0.50;;;;;;;14.90;64.63;99362.06;5055887;28;20189;-66
2022/09/20 01:18:34;;;;;;;0.80;0.80;;;;;;;14.79;64.92;99370.84;5056126;28;20258;-65
2022/09/20 01:21:03;;;;;;;0.87;0.80;;;;;;;14.87;65.17;99367.88;5070020;28;20196;-65
2022/09/20 01:23:40;;;;;;;1.50;0.93;;;;;;;14.75;65.42;99361.66;5076737;28;20253;-66
2022/09/20 01:26:27;;;;;;;1.20;0.80;;;;;;;14.68;65.39;99355.59;5075838;28;20233;-65
2022/09/20 01:29:07;;;;;;;0.80;0.80;;;;;;;14.68;65.43;99363.63;5075700;28;20644;-65
2022/09/20 01:31:36;;;;;;;0.60;0.60;;;;;;;14.74;65.65;99362.69;5076542;28;20207;-65
2022/09/20 01:34:08;;;;;;;0.67;0.67;;;;;;;14.78;65.32;99357.69;5075508;28;20733;-65
2022/09/20 01:36:41;;;;;;;0.73;0.73;;;;;;;14.47;65.26;99329.34;5075629;28;20204;-65
2022/09/20 01:39:12;;;;;;;0.73;0.73;;;;;;;14.70;65.70;99366.06;5076113;28;20188;-65
2022/09/20 01:41:44;;;;;;;1.70;0.83;;;;;;;14.65;66.13;99366.72;5075497;28;20664;-65
2022/09/20 01:44:23;;;;;;;1.23;1.07;;;;;;;14.61;66.37;99370.91;5075419;28;20747;-65
2022/09/20 01:46:58;;;;;;;0.77;0.60;;;;;;;14.59;66.13;99367.63;5074935;28;20648;-65
2022/09/20 01:49:34;;;;;;;0.87;0.70;;;;;;;14.41;67.31;99372.97;5075305;28;20568;-65
2022/09/20 01:52:32;;;;;;;0.77;0.77;;;;;;;14.43;66.75;99375.44;5076103;28;20269;-65
2022/09/20 01:55:38;;;;;;;0.70;0.70;;;;;;;14.47;66.82;99380.13;5075192;28;20652;-65
2022/09/20 01:58:40;;;;;;;1.40;0.70;;;;;;;14.52;66.50;99368.75;5075205;28;20611;-65
2022/09/20 02:01:30;;;;;;;0.87;0.70;;;;;;;14.52;66.78;99363.41;5075124;28;20651;-65
2022/09/20 02:04:34;;;;;;;1.40;0.73;;;;;;;14.50;66.60;99371.63;5075303;28;20275;-65
2022/09/20 02:07:20;;;;;;;0.90;0.90;;;;;;;14.35;66.36;99373.06;5057218;28;20241;-65
2022/09/20 02:10:31;;;;;;;0.93;0.80;;;;;;;14.33;65.71;99373.28;5074945;28;20699;-64
2022/09/20 02:13:03;;;;;;;0.80;0.80;;;;;;;14.27;65.61;99376.84;5068518;28;20230;-65
2022/09/20 02:15:58;;;;;;;1.37;0.70;;;;;;;14.15;65.42;99372.44;5074765;28;20246;-65
2022/09/20 02:18:43;;;;;;;0.70;0.70;;;;;;;14.09;66.33;99368.78;5075962;28;20184;-65
2022/09/20 02:21:19;;;;;;;0.70;0.70;;;;;;;14.08;66.04;99377.84;5059449;28;20185;-65
2022/09/20 02:23:55;;;;;;;1.00;0.80;;;;;;;14.12;65.60;99387.03;5054021;28;20235;-67
2022/09/20 02:26:36;;;;;;;1.13;1.00;;;;;;;14.12;65.59;99384.38;5055019;28;20197;-65
2022/09/20 02:29:17;;;;;;;0.90;0.90;;;;;;;14.13;64.98;99380.66;5054919;28;20188;-66
2022/09/20 02:32:04;;;;;;;1.03;1.00;;;;;;;14.07;64.92;99384.22;5055344;28;20557;-66
2022/09/20 02:34:45;;;;;;;1.00;1.00;;;;;;;14.03;65.07;99376.88;5054800;28;20193;-65
2022/09/20 02:37:40;;;;;;;1.17;1.17;;;;;;;14.00;65.67;99379.97;5055097;28;20250;-65
2022/09/20 02:40:20;;;;;;;2.20;1.10;;;;;;;13.97;65.15;99380.44;5054679;28;20201;-65
2022/09/20 02:42:55;;;;;;;0.63;0.63;;;;;;;14.19;65.23;99378.97;5055246;28;20535;-65
2022/09/20 02:45:30;;;;;;;1.00;1.00;;;;;;;14.08;65.08;99387.69;5054184;28;20253;-65
2022/09/20 02:48:02;;;;;;;1.13;1.10;;;;;;;14.09;65.29;99395.50;5054312;28;20185;-65
2022/09/20 02:50:38;;;;;;;1.50;1.30;;;;;;;14.13;65.13;99391.34;5054163;28;20652;-64
2022/09/20 02:53:18;;;;;;;1.27;1.20;;;;;;;13.99;65.85;99389.84;5054715;28;20270;-65
2022/09/20 02:56:03;;;;;;;1.47;1.10;;;;;;;13.93;66.15;99396.06;5054303;28;20184;-65
2022/09/20 02:58:41;;;;;;;1.33;1.27;;;;;;;13.81;66.12;99407.69;5054200;28;20284;-66
2022/09/20 03:01:20;;;;;;;1.20;1.20;;;;;;;13.79;66.04;99405.22;5053944;28;20248;-66
2022/09/20 03:03:55;;;;;;;1.10;1.10;;;;;;;13.65;66.77;99411.72;5054869;28;20192;-66
2022/09/20 03:06:33;;;;;;;1.70;1.60;;;;;;;13.65;66.70;99409.06;5054010;28;20180;-66
2022/09/20 03:09:11;;;;;;;1.30;1.30;;;;;;;13.52;66.92;99392.31;5053435;28;20677;-65
2022/09/20 03:11:46;;;;;;;1.13;1.10;;;;;;;13.60;67.09;99411.53;5053926;28;20188;-65
2022/09/20 03:14:21;;;;;;;1.27;1.27;;;;;;;13.48;67.40;99409.81;5054962;28;20246;-65
2022/09/20 03:17:03;;;;;;;1.13;1.13;;;;;;;13.40;67.96;99410.88;5054131;28;20216;-65
2022/09/20 03:19:43;;;;;;;1.60;1.50;;;;;;;13.42;67.52;99411.47;5055577;28;20595;-66
2022/09/20 03:22:24;;;;;;;1.37;1.23;;;;;;;13.46;66.94;99404.69;5073616;28;20623;-65
2022/09/20 03:25:06;;;;;;;1.43;1.33;;;;;;;13.41;66.78;99403.69;5074112;28;20306;-66
2022/09/20 03:27:42;;;;;;;1.30;1.20;;;;;;;13.39;66.54;99411.91;5074722;28;20188;-65
2022/09/20 03:30:25;;;;;;;1.50;1.40;;;;;;;13.36;67.02;99415.00;5073417;28;20643;-65
2022/09/20 03:33:06;;;;;;;1.63;1.60;;;;;;;13.45;66.98;99419.06;5073613;28;20219;-66
2022/09/20 03:35:49;;;;;;;1.17;1.17;;;;;;;13.43;67.00;99425.66;5073240;28;20269;-67
2022/09/20 03:38:38;;;;;;;2.77;1.47;;;;;;;13.59;66.47;99428.59;5073781;28;20271;-65
2022/09/20 03:41:33;;;;;;;2.17;1.30;;;;;;;13.89;65.91;99431.44;5073112;28;20635;-66
2022/09/20 03:44:10;;;;;;;1.43;1.33;;;;;;;13.88;65.25;99438.63;5072870;28;20199;-66
2022/09/20 03:46:44;;;;;;;2.27;1.30;;;;;;;13.67;65.59;99433.66;5072898;28;20726;-67
2022/09/20 03:49:49;;;;;;;1.33;1.30;;;;;;;13.60;66.54;99432.88;5073856;28;20272;-66
2022/09/20 03:52:35;;;;;;;1.53;1.50;;;;;;;13.41;66.95;99431.19;5073305;28;20211;-64
2022/09/20 03:55:32;;;;;;;2.77;1.00;;;;;;;13.38;67.60;99423.63;5072735;28;20180;-63
2022/09/20 03:58:16;;;;;;;1.20;1.10;;;;;;;13.36;68.17;99425.66;5073429;28;20270;-67
2022/09/20 04:00:55;;;;;;;1.20;1.10;;;;;;;13.33;68.24;99431.47;5071921;28;20245;-66
2022/09/20 04:03:38;;;;;;;1.90;1.30;;;;;;;13.34;68.49;99427.75;5073821;28;20192;-67
2022/09/20 04:06:20;;;;;;;1.37;1.37;;;;;;;13.35;68.60;99429.38;5073968;28;20819;-67
2022/09/20 04:09:25;;;;;;;1.43;1.33;;;;;;;13.50;67.93;99429.06;5072801;28;20312;-67
2022/09/20 04:12:02;;;;;;;1.27;1.10;;;;;;;13.58;68.01;99432.31;5065386;28;20266;-67
2022/09/20 04:14:37;;;;;;;2.00;1.30;;;;;;;13.71;67.43;99434.88;5057845;28;20180;-64
2022/09/20 04:17:22;;;;;;;2.13;1.47;;;;;;;13.52;67.53;99429.69;5068930;28;20196;-67
2022/09/20 04:19:55;;;;;;;1.23;1.23;;;;;;;13.53;67.84;99448.16;5064948;28;20215;-66
2022/09/20 04:22:25;;;;;;;2.93;1.63;;;;;;;13.57;67.28;99454.69;5062022;28;20250;-66
2022/09/20 04:24:56;;;;;;;4.13;1.50;;;;;;;13.36;68.20;99447.00;5052829;28;20195;-66
2022/09/20 04:27:28;;;;;;;1.53;1.27;;;;;;;13.29;68.31;99446.25;5052337;28;20597;-67
2022/09/20 04:30:01;;;;;;;1.87;1.50;;;;;;;13.17;68.50;99442.63;5057586;28;20610;-66
2022/09/20 04:32:32;;;;;;;2.03;1.93;;;;;;;13.43;67.90;99447.78;5068505;28;20269;-65
2022/09/20 04:37:51;;;;;;;7.87;1.50;;;;;;;14.39;64.34;99460.59;5059089;28;20198;-66
2022/09/20 04:40:32;;;;;;;2.40;1.40;;;;;;;14.61;63.16;99469.81;5051849;28;20193;-67
2022/09/20 04:43:36;;;;;;;1.37;1.30;;;;;;;14.95;62.05;99463.84;5052313;28;20196;-66
2022/09/20 04:46:50;;;;;;;1.40;1.30;;;;;;;15.31;60.25;99473.66;5051678;28;20205;-65
2022/09/20 04:49:52;;;;;;;1.67;1.40;;;;;;;15.49;58.79;99479.81;5051908;28;20691;-66
2022/09/20 04:53:01;;;;;;;5.73;1.73;;;;;;;16.02;57.85;99487.06;5051910;28;20265;-66
2022/09/20 04:55:57;;;;;;;2.60;1.30;;;;;;;16.42;56.22;99493.41;5051660;28;20659;-66
2022/09/20 04:58:49;;;;;;;1.37;1.27;;;;;;;16.79;54.87;99494.78;5052174;28;20189;-66
2022/09/20 05:01:54;;;;;;;5.67;1.40;;;;;;;16.96;53.87;99503.72;5052171;28;20242;-66
2022/09/20 05:05:00;;;;;;;2.10;1.17;;;;;;;17.25;52.82;99502.72;5051624;28;20510;-66
2022/09/20 05:08:15;;;;;;;5.00;1.30;;;;;;;17.33;52.27;99510.41;5051679;28;20184;-67
2022/09/20 05:11:10;;;;;;;1.47;1.23;;;;;;;17.72;50.59;99505.00;5061701;28;20206;-66
2022/09/20 05:13:55;;;;;;;4.87;1.23;;;;;;;17.90;50.09;99506.66;5056432;28;20208;-66
2022/09/20 05:16:31;;;;;;;1.00;1.00;;;;;;;18.11;49.60;99514.00;5052160;28;20200;-66
2022/09/20 05:19:17;;;;;;;1.67;1.57;;;;;;;18.55;48.32;99521.19;5052550;28;20185;-67
2022/09/20 05:22:19;;;;;;;2.57;1.50;;;;;;;19.03;46.77;99513.28;5051693;28;20196;-67
2022/09/20 05:25:12;;;;;;;1.83;1.60;;;;;;;19.44;45.08;99504.66;5051750;28;20191;-67
2022/09/20 05:27:46;;;;;;;2.53;1.30;;;;;;;19.26;45.48;99502.25;5051997;28;20268;-65
2022/09/20 05:30:22;;;;;;;3.23;1.60;;;;;;;18.58;46.75;99499.19;5052746;28;20192;-65
2022/09/20 05:32:59;;;;;;;3.50;1.50;;;;;;;17.70;49.47;99499.06;5059806;28;20293;-66
2022/09/20 05:35:33;;;;;;;1.50;1.40;;;;;;;17.55;49.80;99497.94;5051604;28;20567;-66
2022/09/20 05:38:09;;;;;;;7.83;1.77;;;;;;;17.17;52.06;99503.91;5051357;28;20189;-65
2022/09/20 05:40:49;;;;;;;2.93;1.70;;;;;;;16.42;53.80;99496.94;5051692;28;20188;-65
2022/09/20 05:43:27;;;;;;;4.80;2.03;;;;;;;16.15;55.04;99501.06;5050883;28;20192;-65
2022/09/20 05:46:05;;;;;;;2.40;1.63;;;;;;;15.90;56.19;99516.50;5050753;28;20184;-65
2022/09/20 05:48:40;;;;;;;1.77;1.40;;;;;;;15.76;56.85;99507.84;5051998;28;20258;-65
2022/09/20 05:51:20;;;;;;;2.00;1.80;;;;;;;15.79;56.67;99510.09;5052235;28;20193;-65
2022/09/20 05:54:21;;;;;;;5.10;2.40;;;;;;;15.52;57.85;99506.13;5051271;28;20223;-65
2022/09/20 05:56:57;;;;;;;2.00;1.90;;;;;;;15.57;58.17;99505.47;5051208;28;20568;-65
2022/09/20 05:59:40;;;;;;;5.40;2.20;;;;;;;15.53;57.87;99507.78;5053938;28;20188;-64
2022/09/20 06:02:30;;;;;;;7.13;2.10;;;;;;;15.96;55.99;99520.94;5055574;28;20192;-64
2022/09/20 06:05:03;;;;;;;4.00;1.70;;;;;;;15.98;55.99;99516.97;5055823;28;20192;-64
2022/09/20 06:07:45;;;;;;;2.70;2.50;;;;;;;16.07;56.27;99513.97;5053682;28;20196;-66
2022/09/20 06:10:39;;;;;;;2.37;1.70;;;;;;;15.99;56.32;99517.81;5067503;28;20630;-64
2022/09/20 06:13:23;;;;;;;3.30;1.70;;;;;;;15.79;55.78;99517.28;5064919;28;20257;-64
2022/09/20 06:15:59;;;;;;;1.93;1.63;;;;;;;15.69;56.80;99517.84;5074486;28;20200;-64
2022/09/20 06:18:30;;;;;;;5.23;1.60;;;;;;;15.59;57.15;99516.75;5074716;28;20647;-64
2022/09/20 06:21:09;;;;;;;1.60;1.50;;;;;;;15.72;57.57;99509.34;5064055;28;20637;-63
2022/09/20 06:23:36;;;;;;;6.13;1.63;;;;;;;15.97;57.84;99513.72;5074552;28;20188;-65
2022/09/20 06:26:09;;;;;;;2.43;1.60;;;;;;;16.02;56.30;99524.56;5075307;28;20196;-66
2022/09/20 06:28:40;;;;;;;1.93;1.50;;;;;;;16.11;56.28;99528.53;5074495;28;20585;-65
2022/09/20 06:31:10;;;;;;;2.07;1.60;;;;;;;16.10;55.90;99529.59;5074422;28;20192;-66
2022/09/20 06:33:43;;;;;;;5.47;1.77;;;;;;;16.15;54.98;99532.38;5088876;28;20233;-67
2022/09/20 06:41:52;;;;;;;3.43;2.20;;;;;;;16.28;54.27;99535.69;5092282;28;20561;-68
2022/09/20 06:44:19;;;;;;;2.97;1.73;;;;;;;16.33;53.38;99543.03;5093284;28;20192;-67
2022/09/20 06:46:47;;;;;;;3.10;1.70;;;;;;;16.49;52.82;99542.38;5067534;28;20246;-68
2022/09/20 06:49:14;;;;;;;1.50;1.40;;;;;;;16.55;52.27;99541.44;5065011;28;20278;-68
2022/09/20 06:51:42;;;;;;;3.10;1.93;;;;;;;16.55;51.62;99542.28;5062388;28;20195;-67
2022/09/20 06:54:19;;;;;;;2.10;1.90;;;;;;;16.55;50.67;99547.63;5064590;28;20219;-66
2022/09/20 06:56:48;;;;;;;2.70;1.67;;;;;;;16.55;52.18;99547.63;5074350;28;20192;-67
2022/09/20 06:59:15;;;;;;;3.83;1.53;;;;;;;17.07;49.10;99553.91;5073858;28;20242;-67
2022/09/20 07:01:42;;;;;;;3.50;1.97;;;;;;;17.29;48.44;99552.19;5072750;28;20196;-66
2022/09/20 07:04:11;;;;;;;3.13;1.43;;;;;;;17.59;47.64;99542.09;5074053;28;20285;-65
2022/09/20 07:06:37;;;;;;;4.57;1.80;;;;;;;17.81;47.18;99564.56;5075345;28;20199;-66
2022/09/20 07:09:05;;;;;;;1.90;1.50;;;;;;;18.32;46.41;99565.19;5073789;28;20232;-66
2022/09/20 07:11:33;;;;;;;2.50;1.10;;;;;;;18.83;43.89;99572.22;5073742;28;20287;-66
2022/09/20 07:14:00;;;;;;;3.40;1.40;;;;;;;19.11;41.56;99575.56;5073360;28;20741;-66
2022/09/20 07:16:27;;;;;;;10.63;1.60;;;;;;;19.84;41.49;99575.13;5073563;28;20205;-68
2022/09/20 07:18:55;;;;;;;7.37;1.57;;;;;;;20.27;39.27;99565.09;5074060;28;20620;-68
2022/09/20 07:21:24;;;;;;;1.60;0.97;;;;;;;20.38;37.62;99571.38;5061183;28;20279;-68
2022/09/20 07:23:52;;;;;;;6.53;1.37;;;;;;;20.21;38.17;99566.09;5067548;28;20219;-68
2022/09/20 07:26:21;;;;;;;2.53;1.33;;;;;;;20.22;37.92;99561.53;5072477;28;20215;-68
2022/09/20 07:28:49;;;;;;;1.30;1.03;;;;;;;20.34;37.79;99575.66;5059705;28;20193;-65
2022/09/20 07:31:16;;;;;;;2.73;1.03;;;;;;;19.94;38.68;99575.25;5059645;28;20206;-67
2022/09/20 07:33:43;;;;;;;14.10;2.83;;;;;;;20.12;38.45;99572.22;5064367;28;20764;-67
2022/09/20 07:36:11;;;;;;;2.43;0.97;;;;;;;20.85;38.64;99582.25;5053980;28;20204;-65
2022/09/20 07:38:40;;;;;;;2.03;0.97;;;;;;;21.37;36.15;99581.25;5059172;28;20200;-64
2022/09/20 07:41:08;;;;;;;3.17;1.20;;;;;;;21.30;34.91;99569.84;5063233;28;20254;-64
2022/09/20 07:43:36;;;;;;;2.43;1.10;;;;;;;20.80;35.42;99574.94;5072955;28;20195;-65
2022/09/20 07:46:03;;;;;;;3.77;1.00;;;;;;;20.91;35.88;99573.97;5081241;28;20671;-70
2022/09/20 07:48:32;;;;;;;1.87;1.17;;;;;;;21.37;34.99;99577.72;5072924;28;20188;-69
2022/09/20 07:51:01;;;;;;;2.07;1.30;;;;;;;21.01;35.42;99574.03;5071638;28;20279;-67
2022/09/20 07:53:29;;;;;;;1.40;1.10;;;;;;;21.18;35.25;99565.72;5057004;28;20319;-68
2022/09/20 07:56:01;;;;;;;3.13;1.67;;;;;;;21.26;35.04;99571.44;5072178;28;20206;-69
2022/09/20 07:58:29;;;;;;;4.27;1.10;;;;;;;21.29;34.97;99562.81;5073341;28;20198;-68
2022/09/20 08:00:57;;;;;;;3.90;1.07;;;;;;;22.04;34.54;99554.13;5073129;28;20192;-68
2022/09/20 08:03:24;;;;;;;4.77;1.10;;;;;;;21.97;33.92;99559.81;5073001;28;20195;-68
2022/09/20 08:05:52;;;;;;;3.83;1.43;;;;;;;21.47;34.84;99565.06;5072488;28;20257;-67
2022/09/20 08:08:19;;;;;;;2.73;1.00;;;;;;;21.46;34.95;99563.44;5072134;28;20196;-66
2022/09/20 08:10:47;;;;;;;5.77;1.20;;;;;;;21.56;34.66;99560.75;5073103;28;20193;-66
2022/09/20 08:13:16;;;;;;;7.70;1.37;;;;;;;21.52;34.68;99553.47;5072148;28;20749;-66
2022/09/20 08:15:43;;;;;;;1.33;1.23;;;;;;;21.63;34.99;99547.81;5072543;28;20192;-67
2022/09/20 08:18:10;;;;;;;1.67;1.07;;;;;;;21.96;34.66;99541.16;5072176;28;20663;-67
2022/09/20 08:20:37;;;;;;;2.80;1.43;;;;;;;22.19;34.17;99546.88;5061068;28;20254;-68
2022/09/20 08:23:05;;;;;;;2.73;1.40;;;;;;;22.00;33.79;99539.53;5052633;28;20258;-68
2022/09/20 08:25:32;;;;;;;4.07;1.10;;;;;;;21.81;34.09;99539.22;5052452;28;20196;-67
2022/09/20 08:27:59;;;;;;;4.00;1.30;;;;;;;22.11;34.39;99530.34;5052359;28;20197;-69
2022/09/20 08:30:27;;;;;;;3.30;1.40;;;;;;;22.40;33.76;99532.25;5051682;28;20192;-68
2022/09/20 08:32:54;;;;;;;8.23;1.50;;;;;;;22.51;33.44;99520.38;5057950;28;20200;-65
2022/09/20 08:35:21;;;;;;;1.57;1.00;;;;;;;22.31;33.44;99516.81;5071983;28;20226;-69
2022/09/20 08:37:49;;;;;;;3.07;1.03;;;;;;;22.06;33.63;99527.63;5072841;28;20220;-72
2022/09/20 08:40:16;;;;;;;5.60;1.40;;;;;;;22.12;34.04;99516.56;5072294;28;20194;-73
2022/09/20 08:42:44;;;;;;;7.37;1.47;;;;;;;22.28;34.10;99522.75;5075167;28;20680;-72
2022/09/20 08:45:15;;;;;;;2.30;1.20;;;;;;;22.15;33.33;99523.31;5083296;28;20197;-72
2022/09/20 08:47:49;;;;;;;3.10;0.97;;;;;;;22.41;33.35;99516.84;5052271;28;20238;-72
2022/09/20 08:50:16;;;;;;;3.23;1.07;;;;;;;22.32;32.88;99511.13;5052029;28;20185;-70
2022/09/20 08:52:46;;;;;;;5.90;1.33;;;;;;;22.55;33.10;99507.91;5051884;28;20192;-72
2022/09/20 08:55:15;;;;;;;9.13;1.20;;;;;;;22.80;32.62;99510.56;5071436;28;20735;-71
2022/09/20 08:57:43;;;;;;;6.67;1.17;;;;;;;22.85;32.01;99510.56;5074676;28;20247;-70
2022/09/20 09:00:17;;;;;;;2.37;0.80;;;;;;;22.44;32.73;99511.69;5075972;28;20188;-71
2022/09/20 09:02:46;;;;;;;0.80;0.80;;;;;;;22.33;32.28;99504.63;5075284;28;20275;-71
2022/09/20 09:05:30;;;;;;;4.10;1.00;;;;;;;22.38;32.96;99496.50;5075544;28;20260;-73
2022/09/20 09:07:59;;;;;;;1.60;0.70;;;;;;;22.62;32.44;99502.22;5076026;28;20278;-71
2022/09/20 09:10:28;;;;;;;2.80;0.80;;;;;;;22.95;32.70;99494.25;5072167;28;20232;-71
2022/09/20 09:12:56;;;;;;;2.97;1.10;;;;;;;23.14;31.84;99489.84;5072689;28;20246;-69
2022/09/20 09:15:28;;;;;;;1.37;1.17;;;;;;;23.03;31.24;99493.69;5071570;28;20278;-70
2022/09/20 09:17:56;;;;;;;3.17;1.00;;;;;;;22.56;31.81;99482.44;5072042;28;20247;-70
2022/09/20 09:20:24;;;;;;;4.90;2.43;;;;;;;22.93;31.56;99488.31;5062795;28;20197;-72
2022/09/20 09:23:00;;;;;;;1.07;0.97;;;;;;;22.82;32.66;99481.28;5051962;28;20252;-70
2022/09/20 09:25:33;;;;;;;2.53;2.07;;;;;;;23.07;32.63;99477.69;5051447;28;20197;-71
2022/09/20 09:28:02;;;;;;;3.10;1.43;;;;;;;23.30;32.75;99483.31;5052207;28;20197;-70
2022/09/20 09:30:31;;;;;;;3.57;0.90;;;;;;;23.32;30.91;99478.41;5051436;28;20284;-70
2022/09/20 09:33:21;;;;;;;4.93;0.80;;;;;;;23.40;31.05;99475.09;5051749;28;20205;-71
2022/09/20 09:35:54;;;;;;;0.83;0.83;;;;;;;23.28;31.70;99474.63;5055731;28;20237;-71
2022/09/20 09:38:23;;;;;;;0.73;0.70;;;;;;;22.95;31.15;99474.50;5066271;28;20722;-70
2022/09/20 09:40:53;;;;;;;0.60;0.60;;;;;;;23.11;31.01;99466.00;5075386;28;20734;-69
2022/09/20 09:43:25;;;;;;;3.57;0.60;;;;;;;22.68;30.91;99468.59;5057980;28;20205;-69
2022/09/20 09:45:54;;;;;;;12.07;0.80;;;;;;;22.90;32.05;99466.34;5065480;28;20284;-69
2022/09/20 09:48:26;;;;;;;1.23;0.60;;;;;;;22.81;31.02;99473.44;5075080;28;20619;-69
2022/09/20 09:51:08;;;;;;;2.13;0.70;;;;;;;22.92;32.47;99465.03;5075536;28;20246;-69
2022/09/20 09:53:35;;;;;;;7.50;0.90;;;;;;;22.54;31.56;99464.84;5075288;28;20276;-69
2022/09/20 09:56:23;;;;;;;0.40;0.40;;;;;;;22.50;31.71;99458.38;5075802;28;20621;-69
2022/09/20 09:59:11;;;;;;;1.07;0.40;;;;;;;22.93;31.24;99444.97;5075181;28;20203;-70
2022/09/20 10:01:54;;;;;;;0.60;0.60;;;;;;;22.47;31.48;99456.19;5075484;28;20271;-70
2022/09/20 10:04:32;;;;;;;0.60;0.60;;;;;;;22.19;31.95;99438.63;5074285;28;20191;-70
2022/09/20 10:07:08;;;;;;;0.70;0.70;;;;;;;22.51;32.18;99444.56;5093111;28;20192;-69
2022/09/20 10:09:51;;;;;;;1.90;0.80;;;;;;;22.38;32.14;99447.78;5095252;28;20226;-70
2022/09/20 10:12:31;;;;;;;1.37;0.70;;;;;;;23.16;31.55;99441.59;5095520;28;20271;-69
2022/09/20 10:15:17;;;;;;;0.57;0.50;;;;;;;23.19;31.25;99451.88;5095575;28;20637;-70
2022/09/20 10:17:53;;;;;;;2.60;0.60;;;;;;;23.43;30.31;99450.16;5095081;28;20195;-71
2022/09/20 10:20:32;;;;;;;0.60;0.60;;;;;;;23.53;30.18;99447.38;5088485;28;20607;-71
2022/09/20 10:23:09;;;;;;;2.10;0.60;;;;;;;23.62;29.69;99443.00;5075870;28;20190;-71
2022/09/20 10:25:42;;;;;;;3.63;0.73;;;;;;;23.27;29.84;99435.06;5074580;28;20246;-69
2022/09/20 10:28:29;;;;;;;0.60;0.60;;;;;;;23.08;30.53;99441.38;5075264;28;20207;-69
2022/09/20 10:31:08;;;;;;;1.83;0.60;;;;;;;23.30;30.38;99439.13;5074308;28;20255;-69
2022/09/20 10:33:43;;;;;;;0.70;0.63;;;;;;;23.27;29.53;99432.34;5074058;28;20603;-69
2022/09/20 10:36:26;;;;;;;0.67;0.60;;;;;;;23.45;29.81;99425.47;5076576;28;20250;-69
2022/09/20 10:39:00;;;;;;;2.93;0.60;;;;;;;23.05;30.23;99420.25;5075625;28;20669;-69
2022/09/20 10:44:40;;;;;;;0.50;0.50;;;;;;;22.96;29.97;99428.16;5073756;28;20183;-76
2022/09/20 10:47:16;;;;;;;0.80;0.60;;;;;;;22.77;30.63;99424.44;5053821;28;20189;-69
2022/09/20 10:49:55;;;;;;;3.83;0.60;;;;;;;22.62;29.81;99426.38;5053931;28;20196;-68
2022/09/20 10:52:48;;;;;;;0.70;0.70;;;;;;;22.88;30.32;99419.78;5054153;28;20189;-69
2022/09/20 10:55:33;;;;;;;5.50;0.60;;;;;;;23.13;30.57;99416.94;5054348;28;20245;-68
2022/09/20 10:58:30;;;;;;;1.70;0.53;;;;;;;23.68;29.85;99420.16;5054098;28;20185;-69
2022/09/20 11:01:02;;;;;;;1.20;0.53;;;;;;;24.01;30.56;99408.50;5054158;28;20225;-68
2022/09/20 11:03:51;;;;;;;0.60;0.57;;;;;;;24.33;29.62;99416.91;5053602;28;20613;-70
2022/09/20 11:06:24;;;;;;;1.73;0.50;;;;;;;24.27;29.67;99401.78;5077592;28;20669;-71
2022/09/20 11:08:57;;;;;;;5.07;1.40;;;;;;;24.02;29.41;99390.34;5094074;28;20238;-70
2022/09/20 11:11:31;;;;;;;1.57;0.47;;;;;;;23.61;29.88;99403.38;5094223;28;20243;-68
2022/09/20 11:14:04;;;;;;;0.87;0.70;;;;;;;23.43;30.29;99401.34;5093659;28;20194;-69
2022/09/20 11:16:40;;;;;;;4.03;0.67;;;;;;;23.90;30.90;99384.44;5093441;28;20243;-68
2022/09/20 11:19:18;;;;;;;4.53;1.17;;;;;;;23.61;30.55;99380.88;5094411;28;20281;-67
2022/09/20 11:21:49;;;;;;;0.80;0.80;;;;;;;23.46;31.09;99395.38;5053709;28;20183;-69
2022/09/20 11:24:30;;;;;;;6.97;0.83;;;;;;;23.89;31.41;99378.19;5053720;28;20261;-67
2022/09/20 11:27:02;;;;;;;2.67;0.80;;;;;;;24.37;30.05;99388.06;5053712;28;20203;-69
2022/09/20 11:29:33;;;;;;;4.13;0.67;;;;;;;24.09;27.62;99378.03;5053721;28;20191;-67
2022/09/20 11:32:06;;;;;;;2.23;0.50;;;;;;;24.00;28.15;99377.03;5064646;28;20674;-69
2022/09/20 11:34:38;;;;;;;3.97;0.40;;;;;;;24.29;29.45;99377.84;5072873;28;20212;-68
2022/09/20 11:37:05;;;;;;;1.80;0.80;;;;;;;24.29;28.00;99388.69;5072672;28;20654;-68
2022/09/20 11:39:39;;;;;;;10.27;1.57;;;;;;;23.93;28.07;99373.84;5073514;28;20199;-68
2022/09/20 11:42:11;;;;;;;5.73;0.87;;;;;;;23.95;28.81;99371.69;5072759;28;20650;-69
2022/09/20 11:44:41;;;;;;;0.60;0.60;;;;;;;23.69;29.13;99372.94;5073637;28;20198;-71
2022/09/20 11:47:17;;;;;;;2.60;0.77;;;;;;;23.76;28.88;99368.00;5052741;28;20246;-68
2022/09/20 11:50:07;;;;;;;1.77;0.40;;;;;;;23.82;29.13;99364.16;5052518;28;20712;-67
2022/09/20 11:52:58;;;;;;;0.57;0.57;;;;;;;23.75;29.59;99355.53;5053026;28;20185;-67
2022/09/20 11:55:37;;;;;;;0.40;0.40;;;;;;;24.14;28.18;99353.56;5053093;28;20205;-67
2022/09/20 11:58:06;;;;;;;1.53;0.50;;;;;;;24.41;29.55;99355.72;5052287;28;20191;-67
2022/09/20 12:00:36;;;;;;;1.17;0.30;;;;;;;24.40;28.33;99357.63;5052475;28;20191;-68
2022/09/20 12:03:06;;;;;;;3.73;0.67;;;;;;;24.55;27.48;99354.72;5060913;28;20612;-68
2022/09/20 12:05:36;;;;;;;2.57;0.93;;;;;;;24.16;27.78;99348.66;5078548;28;20294;-67
2022/09/20 12:08:07;;;;;;;0.73;0.67;;;;;;;24.13;28.00;99354.66;5092520;28;20180;-69
2022/09/20 12:10:39;;;;;;;1.20;0.47;;;;;;;24.14;28.71;99342.69;5093238;28;20228;-68
2022/09/20 12:13:17;;;;;;;3.83;0.90;;;;;;;24.34;28.00;99356.06;5092323;28;20565;-68
2022/09/20 12:15:44;;;;;;;0.50;0.50;;;;;;;24.17;27.15;99353.00;5092200;28;20213;-67
2022/09/20 12:18:53;;;;;;;0.50;0.50;;;;;;;24.17;27.69;99347.56;5092503;28;20244;-67
2022/09/20 12:21:20;;;;;;;7.63;2.17;;;;;;;23.87;28.13;99358.69;5069244;28;20278;-68
2022/09/20 12:24:18;;;;;;;13.40;3.30;;;;;;;23.76;27.75;99359.88;5071927;28;20256;-68
2022/09/20 12:26:49;;;;;;;0.50;0.50;;;;;;;23.53;28.11;99357.09;5073273;28;20185;-67
2022/09/20 12:29:53;;;;;;;0.57;0.43;;;;;;;23.70;28.35;99352.88;5072770;28;20198;-67
2022/09/20 12:32:53;;;;;;;4.07;0.90;;;;;;;23.88;28.41;99354.88;5071365;28;20568;-68